Time;durP1;ratioP1;P1;durP2;ratioP2;P2;SDS_P1;SDS_P2;PMS_P1;PMS_P2;Temp;Humidity;BMP_temperature;BMP_pressure;BME280_temperature;BME280_humidity;BME280_pressure;Samples;Min_cycle;Max_cycle;Signal;HPM_P1;HPM_P2
2024/02/06 00:01:46;;;;;;;10.85;4.80;;;;;;;10.80;100.00;101451.88;5212983;28;20045;-81
2024/02/06 00:04:18;;;;;;;8.70;4.72;;;;;;;10.66;100.00;101452.91;5212321;28;20048;-81
2024/02/06 00:06:50;;;;;;;8.50;4.47;;;;;;;10.67;100.00;101459.81;5212444;28;20395;-81
2024/02/06 00:09:22;;;;;;;9.32;4.90;;;;;;;10.66;100.00;101452.91;5214711;28;20038;-81
2024/02/06 00:11:54;;;;;;;7.20;4.65;;;;;;;10.71;100.00;101453.38;5217032;28;20029;-81
2024/02/06 00:14:26;;;;;;;7.38;4.65;;;;;;;10.79;100.00;101442.31;5218398;28;20596;-81
2024/02/06 00:16:58;;;;;;;9.50;4.72;;;;;;;10.74;100.00;101450.53;5214116;28;20029;-81
2024/02/06 00:19:30;;;;;;;8.75;4.60;;;;;;;10.76;100.00;101437.28;5217250;28;20057;-81
2024/02/06 00:22:03;;;;;;;7.10;4.30;;;;;;;10.84;100.00;101437.56;5216392;28;20034;-81
2024/02/06 00:24:35;;;;;;;8.57;3.97;;;;;;;10.88;100.00;101441.63;5215077;28;20311;-81
2024/02/06 00:27:06;;;;;;;11.88;4.05;;;;;;;10.90;100.00;101442.31;5215897;28;20044;-81
2024/02/06 00:29:38;;;;;;;8.95;4.15;;;;;;;10.91;100.00;101442.22;5218791;28;20448;-81
2024/02/06 00:32:11;;;;;;;7.60;4.38;;;;;;;10.86;100.00;101431.25;5213639;28;20044;-81
2024/02/06 00:34:43;;;;;;;7.70;3.88;;;;;;;10.93;100.00;101418.50;5211650;28;20515;-81
2024/02/06 00:37:18;;;;;;;7.68;3.58;;;;;;;10.99;100.00;101417.22;5216859;28;20037;-81
2024/02/06 00:39:50;;;;;;;7.55;3.90;;;;;;;10.95;100.00;101403.50;5217703;28;20507;-81
2024/02/06 00:42:22;;;;;;;8.30;4.20;;;;;;;11.03;100.00;101416.03;5215490;28;20481;-81
2024/02/06 00:44:54;;;;;;;8.95;3.55;;;;;;;10.98;100.00;101418.97;5222134;28;20054;-81
2024/02/06 00:47:26;;;;;;;7.78;4.00;;;;;;;10.92;100.00;101403.75;5219111;28;20030;-81
2024/02/06 00:49:58;;;;;;;10.32;4.45;;;;;;;10.98;100.00;101412.91;5217268;28;20033;-81
2024/02/06 00:52:29;;;;;;;7.75;4.00;;;;;;;10.88;100.00;101394.44;5216097;28;20056;-81
2024/02/06 00:55:01;;;;;;;6.70;3.58;;;;;;;10.93;100.00;101408.84;5216714;28;20034;-81
2024/02/06 00:57:33;;;;;;;11.07;3.97;;;;;;;11.03;100.00;101405.53;5217668;28;20044;-81
2024/02/06 01:00:10;;;;;;;6.63;3.60;;;;;;;11.08;100.00;101401.59;5217768;28;20041;-81
2024/02/06 01:02:41;;;;;;;8.40;4.00;;;;;;;11.13;100.00;101401.22;5213760;28;20025;-81
2024/02/06 01:05:13;;;;;;;7.10;3.47;;;;;;;11.06;100.00;101382.53;5214876;28;20967;-81
2024/02/06 01:07:46;;;;;;;8.23;3.20;;;;;;;11.12;100.00;101396.94;5211040;28;20033;-81
2024/02/06 01:10:18;;;;;;;8.15;3.88;;;;;;;11.20;100.00;101405.03;5215395;28;20102;-81
2024/02/06 01:12:50;;;;;;;6.93;3.10;;;;;;;11.20;100.00;101397.16;5213758;28;20468;-81
2024/02/06 01:15:22;;;;;;;6.75;3.20;;;;;;;11.13;100.00;101396.81;5218528;28;20033;-81
2024/02/06 01:17:54;;;;;;;8.65;3.20;;;;;;;11.21;100.00;101383.09;5214379;28;20034;-81
2024/02/06 01:20:26;;;;;;;7.72;3.20;;;;;;;11.09;100.00;101370.94;5214662;28;20057;-81
2024/02/06 01:22:58;;;;;;;8.80;3.22;;;;;;;11.13;100.00;101378.44;5214602;28;20037;-81
2024/02/06 01:25:30;;;;;;;5.55;3.08;;;;;;;11.16;100.00;101380.00;5216070;28;20037;-81
2024/02/06 01:28:03;;;;;;;5.10;2.60;;;;;;;11.18;100.00;101376.31;5211803;28;20562;-81
2024/02/06 01:30:34;;;;;;;7.43;3.30;;;;;;;11.14;100.00;101358.31;5216069;28;20668;-81
2024/02/06 01:33:06;;;;;;;7.78;2.88;;;;;;;11.18;100.00;101363.22;5213981;28;20029;-81
2024/02/06 01:35:38;;;;;;;6.32;3.00;;;;;;;11.05;100.00;101341.50;5213883;28;20033;-81
2024/02/06 01:38:12;;;;;;;7.03;2.85;;;;;;;11.10;100.00;101349.00;5215389;28;20044;-81
2024/02/06 01:40:44;;;;;;;7.10;3.20;;;;;;;11.15;100.00;101360.00;5216114;28;20030;-81
2024/02/06 01:43:16;;;;;;;7.22;3.00;;;;;;;11.16;100.00;101348.53;5213929;28;20037;-81
2024/02/06 01:45:52;;;;;;;8.73;3.08;;;;;;;11.13;100.00;101338.28;5215253;28;20034;-81
2024/02/06 01:48:24;;;;;;;6.43;3.17;;;;;;;11.19;100.00;101354.38;5216569;28;20272;-81
2024/02/06 01:50:57;;;;;;;11.60;3.25;;;;;;;11.23;100.00;101343.66;5212725;28;20498;-81
2024/02/06 01:53:29;;;;;;;7.85;2.95;;;;;;;11.26;100.00;101338.16;5214955;28;20025;-81
2024/02/06 01:56:01;;;;;;;5.72;3.15;;;;;;;11.25;100.00;101347.81;5216106;28;20490;-81
2024/02/06 01:58:34;;;;;;;8.05;3.75;;;;;;;11.07;100.00;101339.63;5213237;28;20030;-81
2024/02/06 02:01:06;;;;;;;13.90;3.55;;;;;;;11.11;100.00;101343.66;5205941;28;20045;-81
2024/02/06 02:03:38;;;;;;;9.17;3.10;;;;;;;11.20;100.00;101350.78;5212972;28;20479;-81
2024/02/06 02:06:11;;;;;;;10.65;3.25;;;;;;;11.26;100.00;101356.53;5212823;28;20033;-81
2024/02/06 02:08:44;;;;;;;8.77;3.10;;;;;;;11.24;100.00;101340.88;5211605;28;20033;-81
2024/02/06 02:11:17;;;;;;;7.30;3.08;;;;;;;11.32;100.00;101350.78;5216234;28;20029;-81
2024/02/06 02:13:52;;;;;;;6.22;2.95;;;;;;;11.26;100.00;101343.41;5209111;28;20033;-81
2024/02/06 02:16:24;;;;;;;7.15;3.90;;;;;;;11.25;100.00;101345.19;5216222;28;20045;-81
2024/02/06 02:18:58;;;;;;;6.38;3.28;;;;;;;11.22;100.00;101337.56;5212950;28;20427;-81
2024/02/06 02:21:30;;;;;;;9.93;3.80;;;;;;;11.30;100.00;101329.91;5210963;28;20476;-81
2024/02/06 02:24:03;;;;;;;10.68;3.25;;;;;;;11.24;100.00;101326.94;5212222;28;20045;-81
2024/02/06 02:26:38;;;;;;;8.15;3.60;;;;;;;11.32;100.00;101317.50;5213446;28;20026;-81
2024/02/06 02:29:10;;;;;;;6.00;2.78;;;;;;;11.21;100.00;101325.38;5213197;28;20037;-81
2024/02/06 02:31:46;;;;;;;8.47;3.40;;;;;;;11.36;100.00;101304.97;5211675;28;20566;-81
2024/02/06 02:34:20;;;;;;;7.15;3.90;;;;;;;11.37;100.00;101312.72;5216738;28;20391;-81
2024/02/06 02:36:52;;;;;;;7.75;3.72;;;;;;;11.31;100.00;101300.09;5214242;28;20036;-81
2024/02/06 02:39:25;;;;;;;6.82;3.17;;;;;;;11.36;100.00;101304.97;5215085;28;20049;-81
2024/02/06 02:41:57;;;;;;;9.05;3.92;;;;;;;11.43;100.00;101299.09;5213452;28;20041;-81
2024/02/06 02:44:29;;;;;;;7.22;3.20;;;;;;;11.26;100.00;101294.41;5210663;28;20533;-81
2024/02/06 02:47:01;;;;;;;6.57;3.35;;;;;;;11.30;100.00;101289.75;5215084;28;20049;-81
2024/02/06 02:49:33;;;;;;;5.57;3.38;;;;;;;11.32;100.00;101293.88;5215301;28;20030;-81
2024/02/06 02:52:05;;;;;;;9.90;3.78;;;;;;;11.37;100.00;101296.16;5212999;28;20029;-81
2024/02/06 02:54:37;;;;;;;9.30;3.47;;;;;;;11.37;100.00;101291.75;5214212;28;20402;-81
2024/02/06 02:57:09;;;;;;;9.13;4.00;;;;;;;11.30;100.00;101281.88;5213420;28;20033;-81
2024/02/06 02:59:42;;;;;;;6.63;3.20;;;;;;;11.36;100.00;101278.72;5208160;28;20026;-81
2024/02/06 03:02:14;;;;;;;8.90;3.58;;;;;;;11.36;100.00;101270.88;5206591;28;20367;-81
2024/02/06 03:04:46;;;;;;;6.50;3.47;;;;;;;11.42;100.00;101271.22;5212971;28;20041;-81
2024/02/06 03:07:19;;;;;;;8.80;3.30;;;;;;;11.36;100.00;101263.81;5210241;28;20061;-81
2024/02/06 03:09:51;;;;;;;6.03;3.35;;;;;;;11.33;100.00;101255.41;5212498;28;20030;-81
2024/02/06 03:12:31;;;;;;;9.70;3.58;;;;;;;11.34;100.00;101263.13;5214931;28;20040;-81
2024/02/06 03:15:04;;;;;;;8.15;3.70;;;;;;;11.46;100.00;101250.81;5211746;28;20044;-81
2024/02/06 03:17:36;;;;;;;8.20;3.30;;;;;;;11.35;100.00;101251.66;5213315;28;20044;-81
2024/02/06 03:20:09;;;;;;;7.53;3.95;;;;;;;11.35;100.00;101250.84;5213437;28;20130;-81
2024/02/06 03:22:41;;;;;;;;;;;;;;;12.03;100.00;101259.25;5216424;28;20467;-81
2024/02/06 03:25:13;;;;;;;9.20;3.58;;;;;;;11.50;100.00;101231.22;5215975;28;19926;-81
2024/02/06 03:27:45;;;;;;;7.90;3.47;;;;;;;11.59;100.00;101248.00;5210229;28;20048;-81
2024/02/06 03:30:17;;;;;;;11.15;3.88;;;;;;;11.50;100.00;101233.84;5213515;28;20044;-81
2024/02/06 03:32:49;;;;;;;11.02;3.58;;;;;;;11.65;100.00;101244.88;5212488;28;20033;-81
2024/02/06 03:35:20;;;;;;;7.82;3.03;;;;;;;11.57;100.00;101232.38;5210402;28;20399;-81
2024/02/06 03:37:52;;;;;;;7.65;3.25;;;;;;;11.64;100.00;101249.28;5214361;28;20040;-81
2024/02/06 03:40:24;;;;;;;8.85;3.10;;;;;;;11.46;100.00;101219.31;5212421;28;20057;-81
2024/02/06 03:42:56;;;;;;;9.13;3.60;;;;;;;11.44;100.00;101242.25;5218484;28;20200;-81
2024/02/06 03:45:28;;;;;;;8.13;3.53;;;;;;;11.42;100.00;101238.91;5214522;28;20475;-81
2024/02/06 03:48:00;;;;;;;6.75;2.95;;;;;;;11.49;100.00;101232.19;5216930;28;20419;-81
2024/02/06 03:50:32;;;;;;;7.78;3.45;;;;;;;11.31;100.00;101208.28;5214385;28;20033;-81
2024/02/06 03:53:04;;;;;;;8.75;3.30;;;;;;;11.36;100.00;101229.72;5218658;28;20761;-81
2024/02/06 03:55:36;;;;;;;7.13;3.20;;;;;;;11.45;100.00;101231.59;5223202;28;20033;-81
2024/02/06 03:58:09;;;;;;;9.73;3.20;;;;;;;11.53;100.00;101238.03;5221046;28;20049;-81
2024/02/06 04:00:41;;;;;;;7.70;3.28;;;;;;;11.45;100.00;101233.41;5222339;28;20034;-81
2024/02/06 04:03:12;;;;;;;7.70;3.40;;;;;;;11.40;100.00;101233.78;5222388;28;20041;-81
2024/02/06 04:05:45;;;;;;;11.10;4.05;;;;;;;11.40;100.00;101240.78;5223481;28;20029;-81
2024/02/06 04:08:17;;;;;;;8.13;3.00;;;;;;;11.54;100.00;101226.56;5219842;28;20032;-81
2024/02/06 04:10:49;;;;;;;8.77;2.83;;;;;;;11.49;100.00;101226.94;5220954;28;20482;-81
2024/02/06 04:13:21;;;;;;;8.00;3.55;;;;;;;11.46;100.00;101227.19;5215696;28;20034;-81
2024/02/06 04:15:53;;;;;;;6.53;3.25;;;;;;;11.45;100.00;101212.41;5219798;28;20036;-81
2024/02/06 04:18:24;;;;;;;8.45;3.60;;;;;;;11.51;100.00;101224.19;5218310;28;20029;-81
2024/02/06 04:20:56;;;;;;;10.05;3.53;;;;;;;11.48;100.00;101216.56;5219395;28;20402;-81
2024/02/06 04:23:28;;;;;;;9.73;3.47;;;;;;;11.42;100.00;101210.88;5218589;28;20034;-81
2024/02/06 04:26:00;;;;;;;6.18;3.30;;;;;;;11.45;100.00;101209.78;5221615;28;20042;-81
2024/02/06 04:28:32;;;;;;;7.38;3.35;;;;;;;11.46;100.00;101203.56;5218924;28;20044;-81
2024/02/06 04:31:04;;;;;;;7.80;3.20;;;;;;;11.49;100.00;101200.69;5222125;28;20045;-81
2024/02/06 04:33:36;;;;;;;9.20;4.05;;;;;;;11.50;100.00;101199.72;5219245;28;20048;-81
2024/02/06 04:36:08;;;;;;;6.95;3.30;;;;;;;11.60;100.00;101203.25;5218151;28;20448;-81
2024/02/06 04:38:40;;;;;;;6.80;3.40;;;;;;;11.54;100.00;101200.31;5215919;28;20030;-81
2024/02/06 04:41:12;;;;;;;10.05;3.17;;;;;;;11.63;100.00;101189.03;5218592;28;20033;-81
2024/02/06 04:43:44;;;;;;;9.50;3.38;;;;;;;11.63;100.00;101202.16;5219608;28;20034;-81
2024/02/06 04:46:15;;;;;;;6.20;3.38;;;;;;;11.51;100.00;101195.31;5221694;28;20037;-81
2024/02/06 04:48:47;;;;;;;8.98;3.67;;;;;;;11.44;100.00;101182.72;5220640;28;20045;-81
2024/02/06 04:51:19;;;;;;;7.88;3.50;;;;;;;11.50;100.00;101194.50;5220952;28;20498;-81
2024/02/06 04:53:52;;;;;;;8.32;3.80;;;;;;;11.54;100.00;101188.03;5222081;28;20407;-81
2024/02/06 04:56:25;;;;;;;9.05;3.28;;;;;;;11.59;100.00;101193.75;5219157;28;20025;-81
2024/02/06 04:58:57;;;;;;;8.25;3.00;;;;;;;11.53;100.00;101186.38;5215974;28;20038;-81
2024/02/06 05:01:29;;;;;;;6.05;3.22;;;;;;;11.52;100.00;101183.88;5219022;28;20033;-81
2024/02/06 05:04:01;;;;;;;9.02;4.10;;;;;;;11.44;100.00;101172.22;5219774;28;20049;-81
2024/02/06 05:06:33;;;;;;;11.20;3.17;;;;;;;11.52;100.00;101168.97;5219498;28;20380;-81
2024/02/06 05:09:05;;;;;;;8.13;3.55;;;;;;;11.49;100.00;101168.38;5216658;28;20307;-81
2024/02/06 05:11:37;;;;;;;12.55;3.53;;;;;;;11.52;100.00;101174.22;5216597;28;20578;-81
2024/02/06 05:14:09;;;;;;;10.40;3.58;;;;;;;11.40;100.00;101175.22;5217651;28;20040;-81
2024/02/06 05:16:40;;;;;;;12.05;3.97;;;;;;;11.38;100.00;101159.63;5213818;28;20036;-81
2024/02/06 05:19:17;;;;;;;5.55;2.90;;;;;;;11.43;100.00;101170.53;5218738;28;20417;-81
2024/02/06 05:21:49;;;;;;;11.02;3.97;;;;;;;11.47;100.00;101170.28;5216127;28;20025;-81
2024/02/06 05:24:21;;;;;;;9.77;4.00;;;;;;;11.43;100.00;101160.06;5217277;28;20037;-81
2024/02/06 05:26:56;;;;;;;11.75;3.60;;;;;;;11.38;100.00;101164.84;5210101;28;20045;-81
2024/02/06 05:29:27;;;;;;;9.90;4.13;;;;;;;11.42;100.00;101153.16;5216265;28;20045;-81
2024/02/06 05:31:59;;;;;;;9.65;3.30;;;;;;;11.47;100.00;101157.19;5213781;28;20037;-81
2024/02/06 05:34:31;;;;;;;9.40;3.30;;;;;;;11.38;100.00;101150.91;5216338;28;20795;-81
2024/02/06 05:37:04;;;;;;;11.30;3.58;;;;;;;11.49;100.00;101156.09;5209888;28;20038;-81
2024/02/06 05:39:36;;;;;;;10.40;3.47;;;;;;;11.52;100.00;101155.84;5215708;28;20029;-81
2024/02/06 05:42:08;;;;;;;10.07;3.60;;;;;;;11.47;100.00;101151.94;5217109;28;20509;-80
2024/02/06 05:44:40;;;;;;;7.38;3.22;;;;;;;11.42;100.00;101142.66;5212619;28;20033;-81
2024/02/06 05:47:12;;;;;;;9.05;4.07;;;;;;;11.42;100.00;101152.31;5217283;28;20831;-81
2024/02/06 05:49:44;;;;;;;9.77;3.25;;;;;;;11.47;100.00;101155.38;5212787;28;20034;-81
2024/02/06 05:52:16;;;;;;;7.28;3.17;;;;;;;11.47;100.00;101152.75;5215977;28;20041;-81
2024/02/06 05:54:48;;;;;;;8.18;3.10;;;;;;;11.41;100.00;101145.41;5218477;28;20404;-81
2024/02/06 05:57:20;;;;;;;8.45;3.38;;;;;;;11.50;100.00;101146.44;5214717;28;20073;-81
2024/02/06 05:59:52;;;;;;;10.25;3.30;;;;;;;11.48;100.00;101153.59;5216232;28;20040;-81
2024/02/06 06:02:24;;;;;;;13.68;3.50;;;;;;;11.48;100.00;101145.72;5217993;28;20029;-81
2024/02/06 06:04:56;;;;;;;8.20;3.50;;;;;;;11.48;100.00;101122.97;5218409;28;20033;-81
2024/02/06 06:07:28;;;;;;;9.63;3.63;;;;;;;11.53;100.00;101131.25;5212965;28;20903;-80
2024/02/06 06:10:00;;;;;;;9.80;3.60;;;;;;;11.53;100.00;101131.25;5211713;28;20023;-81
2024/02/06 06:12:31;;;;;;;9.57;3.67;;;;;;;11.45;100.00;101124.03;5217099;28;20491;-81
2024/02/06 06:15:04;;;;;;;9.55;3.63;;;;;;;11.49;100.00;101110.66;5212033;28;20377;-81
2024/02/06 06:17:35;;;;;;;10.50;3.65;;;;;;;11.58;100.00;101130.88;5218628;28;20052;-81
2024/02/06 06:20:08;;;;;;;15.60;3.85;;;;;;;11.56;100.00;101112.66;5217790;28;20057;-81
2024/02/06 06:22:40;;;;;;;11.30;3.77;;;;;;;11.70;100.00;101114.06;5216491;28;20108;-80
2024/02/06 06:25:12;;;;;;;10.57;3.38;;;;;;;11.64;100.00;101114.63;5213399;28;20037;-80
2024/02/06 06:27:44;;;;;;;8.73;3.42;;;;;;;11.59;100.00;101104.53;5216268;28;20033;-80
2024/02/06 06:30:16;;;;;;;8.20;3.67;;;;;;;11.50;100.00;101112.31;5217629;28;20427;-80
2024/02/06 06:32:48;;;;;;;13.75;3.65;;;;;;;11.57;100.00;101101.19;5217764;28;20052;-81
2024/02/06 06:35:19;;;;;;;9.98;3.40;;;;;;;11.66;100.00;101100.38;5215809;28;20033;-81
2024/02/06 06:37:51;;;;;;;9.38;3.63;;;;;;;11.57;100.00;101102.97;5216965;28;20038;-81
2024/02/06 06:40:23;;;;;;;8.77;3.80;;;;;;;11.57;100.00;101106.44;5219196;28;20030;-81
2024/02/06 06:42:55;;;;;;;8.80;3.60;;;;;;;11.63;100.00;101118.19;5217027;28;20040;-81
2024/02/06 06:45:28;;;;;;;12.15;3.78;;;;;;;11.65;100.00;101114.47;5217275;28;20038;-81
2024/02/06 06:48:00;;;;;;;9.82;3.50;;;;;;;11.61;100.00;101114.88;5217564;28;20029;-81
2024/02/06 06:50:31;;;;;;;8.27;3.53;;;;;;;11.66;100.00;101103.00;5216749;28;20117;-81
2024/02/06 06:53:03;;;;;;;10.35;4.28;;;;;;;11.58;100.00;101094.13;5219775;28;20041;-80
2024/02/06 06:55:35;;;;;;;10.35;3.50;;;;;;;11.68;100.00;101101.09;5216538;28;20033;-81
2024/02/06 06:58:07;;;;;;;10.05;3.67;;;;;;;11.75;100.00;101106.66;5217237;28;20037;-81
2024/02/06 07:00:39;;;;;;;11.02;3.42;;;;;;;11.76;100.00;101103.06;5215979;28;20036;-81
2024/02/06 07:03:11;;;;;;;11.82;3.38;;;;;;;11.67;100.00;101101.25;5218037;28;20426;-81
2024/02/06 07:05:44;;;;;;;9.05;3.65;;;;;;;11.67;100.00;101094.19;5214150;28;20037;-81
2024/02/06 07:08:16;;;;;;;10.73;3.83;;;;;;;11.64;100.00;101083.13;5215873;28;20037;-81
2024/02/06 07:10:48;;;;;;;8.82;3.67;;;;;;;11.82;100.00;101085.94;5216483;28;20494;-81
2024/02/06 07:13:20;;;;;;;7.80;4.22;;;;;;;11.93;100.00;101086.72;5215256;28;20397;-80
2024/02/06 07:15:51;;;;;;;8.07;3.47;;;;;;;11.83;100.00;101080.63;5217333;28;20032;-81
2024/02/06 07:18:23;;;;;;;10.43;4.00;;;;;;;11.78;100.00;101088.03;5216703;28;20037;-81
2024/02/06 07:20:56;;;;;;;10.45;3.45;;;;;;;11.71;100.00;101091.31;5218349;28;20029;-81
2024/02/06 07:23:28;;;;;;;9.85;3.55;;;;;;;11.82;100.00;101078.06;5217105;28;20032;-81
2024/02/06 07:26:00;;;;;;;8.48;3.60;;;;;;;11.74;100.00;101081.34;5212718;28;20041;-81
2024/02/06 07:28:32;;;;;;;10.25;3.42;;;;;;;11.79;100.00;101081.81;5215362;28;20399;-80
2024/02/06 07:31:04;;;;;;;10.50;3.88;;;;;;;11.80;100.00;101088.72;5219129;28;20033;-81
2024/02/06 07:33:36;;;;;;;10.73;3.22;;;;;;;11.77;100.00;101078.47;5213552;28;20136;-81
2024/02/06 07:36:08;;;;;;;9.57;3.65;;;;;;;11.84;100.00;101077.00;5218333;28;20025;-81
2024/02/06 07:38:40;;;;;;;12.68;3.88;;;;;;;11.95;100.00;101075.25;5214907;28;20046;-81
2024/02/06 07:41:12;;;;;;;10.82;3.80;;;;;;;11.85;100.00;101067.34;5212862;28;20112;-81
2024/02/06 07:43:44;;;;;;;9.95;3.63;;;;;;;11.97;100.00;101068.06;5207127;28;20485;-81
2024/02/06 07:46:18;;;;;;;10.13;3.58;;;;;;;11.98;100.00;101075.81;5209986;28;20033;-81
2024/02/06 07:48:54;;;;;;;12.48;3.65;;;;;;;11.96;100.00;101066.41;5211221;28;20025;-81
2024/02/06 07:51:26;;;;;;;13.85;3.80;;;;;;;11.97;100.00;101068.94;5213966;28;20487;-81
2024/02/06 07:53:58;;;;;;;11.48;3.45;;;;;;;12.00;100.00;101070.44;5217020;28;20120;-81
2024/02/06 07:56:31;;;;;;;13.43;3.70;;;;;;;12.01;100.00;101080.81;5216615;28;20565;-81
2024/02/06 07:59:04;;;;;;;9.35;3.42;;;;;;;12.06;100.00;101083.03;5211743;28;20034;-79
2024/02/06 08:01:35;;;;;;;9.70;3.45;;;;;;;12.06;100.00;101069.91;5214706;28;20048;-81
2024/02/06 08:04:07;;;;;;;11.05;3.67;;;;;;;12.06;100.00;101067.28;5216232;28;20033;-81
2024/02/06 08:06:39;;;;;;;13.20;4.00;;;;;;;12.04;100.00;101069.19;5216963;28;20044;-81
2024/02/06 08:09:11;;;;;;;9.30;2.97;;;;;;;12.10;100.00;101074.75;5215648;28;20029;-81
2024/02/06 08:11:43;;;;;;;10.68;3.45;;;;;;;12.05;100.00;101060.38;5217397;28;20029;-81
2024/02/06 08:14:16;;;;;;;11.45;3.97;;;;;;;11.99;100.00;101066.16;5215985;28;20095;-81
2024/02/06 08:16:48;;;;;;;11.13;4.00;;;;;;;12.00;100.00;101066.00;5211815;28;20285;-81
2024/02/06 08:19:20;;;;;;;9.13;3.40;;;;;;;12.02;100.00;101073.75;5209505;28;20052;-81
2024/02/06 08:21:52;;;;;;;10.80;4.03;;;;;;;11.99;100.00;101064.34;5208509;28;20547;-81
2024/02/06 08:24:24;;;;;;;11.50;3.47;;;;;;;11.96;100.00;101062.00;5210982;28;20053;-81
2024/02/06 08:26:56;;;;;;;11.38;3.70;;;;;;;12.02;100.00;101058.00;5213075;28;20040;-81
2024/02/06 08:29:28;;;;;;;11.90;4.20;;;;;;;12.08;100.00;101081.09;5213685;28;20030;-81
2024/02/06 08:32:00;;;;;;;9.13;3.28;;;;;;;12.21;100.00;101075.63;5213776;28;20041;-81
2024/02/06 08:34:32;;;;;;;12.65;3.70;;;;;;;12.18;100.00;101071.44;5217363;28;20040;-81
2024/02/06 08:37:04;;;;;;;11.38;3.67;;;;;;;12.16;100.00;101073.41;5212412;28;20450;-81
2024/02/06 08:39:36;;;;;;;8.25;3.45;;;;;;;12.11;100.00;101076.41;5215462;28;20109;-80
2024/02/06 08:42:08;;;;;;;8.48;3.40;;;;;;;11.99;100.00;101081.91;5218232;28;20037;-81
2024/02/06 08:44:40;;;;;;;11.05;4.47;;;;;;;11.99;100.00;101076.66;5219191;28;20084;-81
2024/02/06 08:47:12;;;;;;;6.90;3.25;;;;;;;11.95;100.00;101085.75;5215593;28;20113;-80
2024/02/06 08:49:44;;;;;;;7.45;3.42;;;;;;;11.88;100.00;101081.03;5219530;28;20029;-81
2024/02/06 08:52:16;;;;;;;8.00;3.65;;;;;;;11.93;100.00;101080.63;5216781;28;20388;-81
2024/02/06 08:54:48;;;;;;;12.93;3.83;;;;;;;11.76;100.00;101074.19;5220929;28;20034;-81
2024/02/06 08:57:20;;;;;;;9.38;3.38;;;;;;;11.79;100.00;101087.06;5218413;28;20457;-80
2024/02/06 08:59:52;;;;;;;11.02;4.00;;;;;;;11.84;100.00;101082.25;5216885;28;20036;-81
2024/02/06 09:02:26;;;;;;;8.23;3.83;;;;;;;11.91;100.00;101074.69;5221212;28;20514;-81
2024/02/06 09:04:58;;;;;;;16.40;4.30;;;;;;;11.86;100.00;101082.16;5217056;28;20033;-81
2024/02/06 09:07:31;;;;;;;10.68;3.90;;;;;;;11.79;100.00;101079.19;5217423;28;20132;-81
2024/02/06 09:10:04;;;;;;;10.20;4.30;;;;;;;11.83;100.00;101072.72;5216319;28;20026;-80
2024/02/06 09:12:35;;;;;;;11.00;3.75;;;;;;;11.73;100.00;101068.38;5214897;28;20038;-81
2024/02/06 09:15:08;;;;;;;12.48;4.05;;;;;;;11.62;100.00;101062.25;5222951;28;20316;-81
2024/02/06 09:17:40;;;;;;;10.05;3.90;;;;;;;11.66;100.00;101047.88;5215324;28;20041;-81
2024/02/06 09:20:13;;;;;;;9.52;4.30;;;;;;;11.72;100.00;101054.41;5216241;28;20045;-81
2024/02/06 09:22:46;;;;;;;9.27;4.10;;;;;;;11.69;100.00;101045.00;5217048;28;20040;-81
2024/02/06 09:25:18;;;;;;;10.37;4.47;;;;;;;11.76;100.00;101058.44;5217314;28;20045;-81
2024/02/06 09:27:50;;;;;;;11.68;4.32;;;;;;;11.74;100.00;101057.72;5213105;28;20036;-81
2024/02/06 09:30:22;;;;;;;9.00;4.22;;;;;;;11.80;100.00;101053.75;5213991;28;20037;-81
2024/02/06 09:32:54;;;;;;;9.65;4.47;;;;;;;11.85;100.00;101052.41;5217247;28;20399;-81
2024/02/06 09:35:26;;;;;;;14.20;4.63;;;;;;;11.84;100.00;101053.38;5217066;28;20044;-81
2024/02/06 09:37:57;;;;;;;13.88;4.15;;;;;;;11.79;100.00;101047.69;5216370;28;20620;-81
2024/02/06 09:40:31;;;;;;;10.50;4.50;;;;;;;11.80;100.00;101046.72;5219249;28;20453;-81
2024/02/06 09:43:05;;;;;;;13.40;4.93;;;;;;;11.87;100.00;101044.44;5220191;28;20033;-81
2024/02/06 09:45:37;;;;;;;6.50;3.85;;;;;;;11.91;100.00;101040.56;5212616;28;20038;-81
2024/02/06 09:48:09;;;;;;;14.35;4.68;;;;;;;11.84;100.00;101035.00;5216754;28;20075;-81
2024/02/06 09:50:42;;;;;;;11.20;4.20;;;;;;;11.93;100.00;101039.47;5217285;28;20021;-81
2024/02/06 09:53:14;;;;;;;;;;;;;;;12.52;100.00;101029.03;5220177;28;20033;-81
2024/02/06 09:55:47;;;;;;;11.32;3.85;;;;;;;12.05;100.00;101031.50;5213913;28;19921;-81
2024/02/06 09:58:19;;;;;;;8.75;4.35;;;;;;;11.93;100.00;101036.00;5218421;28;20042;-81
2024/02/06 10:00:53;;;;;;;11.20;5.10;;;;;;;12.01;100.00;101035.31;5215042;28;20447;-81
2024/02/06 10:03:32;;;;;;;13.43;4.43;;;;;;;12.11;100.00;101026.50;5216544;28;20467;-81
2024/02/06 10:06:09;;;;;;;15.63;5.35;;;;;;;11.93;100.00;101031.59;5216394;28;20320;-81
2024/02/06 10:08:43;;;;;;;11.77;4.40;;;;;;;11.95;100.00;101022.75;5209289;28;20022;-81
2024/02/06 10:11:17;;;;;;;11.13;3.70;;;;;;;11.97;100.00;101028.69;5208213;28;20038;-81
2024/02/06 10:13:49;;;;;;;9.75;4.20;;;;;;;11.93;100.00;101013.22;5212185;28;20033;-81
2024/02/06 10:16:20;;;;;;;9.93;3.95;;;;;;;11.93;100.00;101021.09;5221436;28;20034;-81
2024/02/06 10:18:53;;;;;;;11.63;4.93;;;;;;;11.87;100.00;101000.63;5217612;28;20053;-81
2024/02/06 10:21:26;;;;;;;14.25;4.72;;;;;;;11.89;100.00;101022.34;5218695;28;20387;-81
2024/02/06 10:24:02;;;;;;;;;;;;;;;12.37;100.00;101010.22;5223090;28;20505;-81
2024/02/06 10:26:34;;;;;;;12.00;4.65;;;;;;;11.87;100.00;101008.50;5227771;28;19917;-81
2024/02/06 10:29:17;;;;;;;11.05;4.10;;;;;;;11.88;100.00;100999.66;5219967;28;20304;-81
2024/02/06 10:31:51;;;;;;;9.20;4.55;;;;;;;11.86;100.00;101004.22;5217757;28;20040;-81
2024/02/06 10:34:22;;;;;;;12.35;4.57;;;;;;;11.85;100.00;100999.91;5219392;28;20387;-81
2024/02/06 10:36:58;;;;;;;11.48;5.00;;;;;;;11.98;100.00;101011.97;5219224;28;20041;-81
2024/02/06 10:39:30;;;;;;;12.43;4.95;;;;;;;11.95;100.00;101012.25;5215179;28;20022;-81
2024/02/06 10:42:03;;;;;;;10.88;4.50;;;;;;;11.97;100.00;101015.56;5218143;28;20068;-81
2024/02/06 10:44:36;;;;;;;10.05;4.35;;;;;;;11.99;100.00;100996.09;5216932;28;20037;-81
2024/02/06 10:47:10;;;;;;;13.07;4.40;;;;;;;12.09;100.00;101017.13;5210756;28;20044;-81
2024/02/06 10:49:41;;;;;;;13.48;4.60;;;;;;;12.03;100.00;101001.91;5221017;28;20040;-81
2024/02/06 10:52:15;;;;;;;9.75;4.22;;;;;;;12.02;100.00;100992.38;5215370;28;20041;-81
2024/02/06 10:54:47;;;;;;;10.73;4.60;;;;;;;11.93;100.00;100997.47;5216854;28;20047;-81
2024/02/06 10:57:21;;;;;;;10.82;4.35;;;;;;;12.00;100.00;100983.78;5210815;28;20029;-81
2024/02/06 11:00:15;;;;;;;9.45;4.60;;;;;;;12.22;100.00;100980.91;5210010;28;20514;-81
2024/02/06 11:02:52;;;;;;;8.93;3.92;;;;;;;12.02;100.00;100980.06;5211109;28;20046;-81
2024/02/06 11:05:29;;;;;;;14.07;5.47;;;;;;;11.95;100.00;100968.44;5211314;28;20029;-81
2024/02/06 11:08:05;;;;;;;8.52;4.10;;;;;;;11.97;100.00;100979.66;5213656;28;20045;-81
2024/02/06 11:10:46;;;;;;;8.45;3.95;;;;;;;12.10;100.00;100974.94;5209293;28;20030;-82
2024/02/06 11:13:36;;;;;;;9.68;3.90;;;;;;;12.18;100.00;100961.97;5208455;28;21223;-82
2024/02/06 11:16:11;;;;;;;10.13;5.03;;;;;;;12.07;100.00;100958.63;5218343;28;20513;-82
2024/02/06 11:19:11;;;;;;;10.00;4.50;;;;;;;12.18;100.00;100971.63;5214442;28;20057;-82
2024/02/06 11:21:48;;;;;;;9.10;4.43;;;;;;;11.93;100.00;100963.34;5210726;28;20049;-82
2024/02/06 11:24:21;;;;;;;11.10;4.60;;;;;;;11.98;100.00;100946.34;5216797;28;20033;-83
2024/02/06 11:26:54;;;;;;;9.00;4.47;;;;;;;11.94;100.00;100943.16;5217783;28;20040;-84
2024/02/06 11:29:26;;;;;;;8.85;4.00;;;;;;;12.00;100.00;100947.84;5215415;28;20033;-81
2024/02/06 11:31:59;;;;;;;8.43;4.45;;;;;;;11.93;100.00;100950.22;5214008;28;20510;-81
2024/02/06 11:34:31;;;;;;;9.13;4.13;;;;;;;11.95;100.00;100938.72;5214775;28;20037;-81
2024/02/06 11:37:03;;;;;;;11.32;4.65;;;;;;;11.89;100.00;100930.44;5214576;28;20403;-81
2024/02/06 11:39:36;;;;;;;12.27;5.05;;;;;;;11.96;100.00;100932.50;5216169;28;20036;-81